sensor_id;sensor_type;location;lat;lon;timestamp;P1;durP1;ratioP1;P2;durP2;ratioP2
1282;SDS011;634;48.810;9.148;2022-09-11T00:00:24;1.60;;;0.83;;
1282;SDS011;634;48.810;9.148;2022-09-11T00:02:53;1.27;;;0.80;;
1282;SDS011;634;48.810;9.148;2022-09-11T00:05:25;1.43;;;1.00;;
1282;SDS011;634;48.810;9.148;2022-09-11T00:07:56;2.17;;;1.27;;
1282;SDS011;634;48.810;9.148;2022-09-11T00:10:25;2.70;;;1.03;;
1282;SDS011;634;48.810;9.148;2022-09-11T00:12:55;3.13;;;1.07;;
1282;SDS011;634;48.810;9.148;2022-09-11T00:15:24;1.50;;;1.00;;
1282;SDS011;634;48.810;9.148;2022-09-11T00:17:59;2.33;;;1.20;;
1282;SDS011;634;48.810;9.148;2022-09-11T00:20:28;1.23;;;0.80;;
1282;SDS011;634;48.810;9.148;2022-09-11T00:22:59;2.40;;;1.00;;
1282;SDS011;634;48.810;9.148;2022-09-11T00:25:30;3.03;;;0.97;;
1282;SDS011;634;48.810;9.148;2022-09-11T00:28:02;1.10;;;1.00;;
1282;SDS011;634;48.810;9.148;2022-09-11T00:30:31;5.93;;;2.00;;
1282;SDS011;634;48.810;9.148;2022-09-11T00:33:04;2.33;;;1.23;;
1282;SDS011;634;48.810;9.148;2022-09-11T00:35:35;1.10;;;0.80;;
1282;SDS011;634;48.810;9.148;2022-09-11T00:38:05;1.03;;;0.80;;
1282;SDS011;634;48.810;9.148;2022-09-11T00:40:42;1.70;;;0.80;;
1282;SDS011;634;48.810;9.148;2022-09-11T00:43:13;2.90;;;1.57;;
1282;SDS011;634;48.810;9.148;2022-09-11T00:45:43;1.40;;;0.70;;
1282;SDS011;634;48.810;9.148;2022-09-11T00:48:18;2.10;;;1.07;;
1282;SDS011;634;48.810;9.148;2022-09-11T00:50:53;1.50;;;1.10;;
1282;SDS011;634;48.810;9.148;2022-09-11T00:53:29;1.63;;;0.93;;
1282;SDS011;634;48.810;9.148;2022-09-11T00:56:04;1.10;;;0.80;;
1282;SDS011;634;48.810;9.148;2022-09-11T00:58:38;3.93;;;1.00;;
1282;SDS011;634;48.810;9.148;2022-09-11T01:01:10;1.47;;;0.77;;
1282;SDS011;634;48.810;9.148;2022-09-11T01:03:42;0.80;;;0.80;;
1282;SDS011;634;48.810;9.148;2022-09-11T01:06:12;2.40;;;0.80;;
1282;SDS011;634;48.810;9.148;2022-09-11T01:08:42;1.50;;;1.10;;
1282;SDS011;634;48.810;9.148;2022-09-11T01:11:15;1.67;;;1.00;;
1282;SDS011;634;48.810;9.148;2022-09-11T01:13:54;2.17;;;1.20;;
1282;SDS011;634;48.810;9.148;2022-09-11T01:16:30;1.60;;;0.90;;
1282;SDS011;634;48.810;9.148;2022-09-11T01:19:12;2.40;;;1.00;;
1282;SDS011;634;48.810;9.148;2022-09-11T01:22:00;4.50;;;1.17;;
1282;SDS011;634;48.810;9.148;2022-09-11T01:24:54;1.17;;;0.80;;
1282;SDS011;634;48.810;9.148;2022-09-11T01:27:40;2.30;;;0.90;;
1282;SDS011;634;48.810;9.148;2022-09-11T01:30:13;1.87;;;1.10;;
1282;SDS011;634;48.810;9.148;2022-09-11T01:32:51;2.57;;;1.37;;
1282;SDS011;634;48.810;9.148;2022-09-11T01:35:37;1.87;;;1.13;;
1282;SDS011;634;48.810;9.148;2022-09-11T01:38:17;2.50;;;1.13;;
1282;SDS011;634;48.810;9.148;2022-09-11T01:40:54;1.30;;;1.10;;
1282;SDS011;634;48.810;9.148;2022-09-11T01:43:30;2.07;;;1.43;;
1282;SDS011;634;48.810;9.148;2022-09-11T01:46:03;2.10;;;1.13;;
1282;SDS011;634;48.810;9.148;2022-09-11T01:48:37;2.53;;;0.97;;
1282;SDS011;634;48.810;9.148;2022-09-11T01:51:11;1.10;;;1.00;;
1282;SDS011;634;48.810;9.148;2022-09-11T01:53:48;2.20;;;1.10;;
1282;SDS011;634;48.810;9.148;2022-09-11T01:56:20;3.07;;;1.03;;
1282;SDS011;634;48.810;9.148;2022-09-11T01:58:58;2.30;;;1.30;;
1282;SDS011;634;48.810;9.148;2022-09-11T02:01:31;3.27;;;1.70;;
1282;SDS011;634;48.810;9.148;2022-09-11T02:04:06;4.20;;;1.63;;
1282;SDS011;634;48.810;9.148;2022-09-11T02:06:39;2.13;;;1.30;;
1282;SDS011;634;48.810;9.148;2022-09-11T02:09:15;3.10;;;2.10;;
1282;SDS011;634;48.810;9.148;2022-09-11T02:11:50;2.03;;;1.10;;
1282;SDS011;634;48.810;9.148;2022-09-11T02:14:25;4.20;;;1.70;;
1282;SDS011;634;48.810;9.148;2022-09-11T02:16:59;3.37;;;1.57;;
1282;SDS011;634;48.810;9.148;2022-09-11T02:19:36;1.50;;;1.20;;
1282;SDS011;634;48.810;9.148;2022-09-11T02:22:07;2.47;;;1.23;;
1282;SDS011;634;48.810;9.148;2022-09-11T02:24:36;2.20;;;1.30;;
1282;SDS011;634;48.810;9.148;2022-09-11T02:27:08;1.47;;;1.03;;
1282;SDS011;634;48.810;9.148;2022-09-11T02:29:45;3.57;;;1.60;;
1282;SDS011;634;48.810;9.148;2022-09-11T02:32:15;1.63;;;1.53;;
1282;SDS011;634;48.810;9.148;2022-09-11T02:34:45;1.93;;;1.30;;
1282;SDS011;634;48.810;9.148;2022-09-11T02:37:21;2.57;;;1.27;;
1282;SDS011;634;48.810;9.148;2022-09-11T02:46:00;2.13;;;1.57;;
1282;SDS011;634;48.810;9.148;2022-09-11T02:48:44;1.30;;;1.03;;
1282;SDS011;634;48.810;9.148;2022-09-11T02:51:26;2.70;;;1.40;;
1282;SDS011;634;48.810;9.148;2022-09-11T02:54:03;3.23;;;1.23;;
1282;SDS011;634;48.810;9.148;2022-09-11T02:56:42;6.70;;;2.00;;
1282;SDS011;634;48.810;9.148;2022-09-11T02:59:16;2.30;;;1.40;;
1282;SDS011;634;48.810;9.148;2022-09-11T03:01:53;2.70;;;1.47;;
1282;SDS011;634;48.810;9.148;2022-09-11T03:04:27;1.63;;;1.10;;
1282;SDS011;634;48.810;9.148;2022-09-11T03:06:59;3.83;;;1.60;;
1282;SDS011;634;48.810;9.148;2022-09-11T03:09:30;1.67;;;1.27;;
1282;SDS011;634;48.810;9.148;2022-09-11T03:12:06;2.17;;;1.30;;
1282;SDS011;634;48.810;9.148;2022-09-11T03:14:37;2.53;;;1.23;;
1282;SDS011;634;48.810;9.148;2022-09-11T03:17:09;4.47;;;1.40;;
1282;SDS011;634;48.810;9.148;2022-09-11T03:19:38;1.90;;;1.40;;
1282;SDS011;634;48.810;9.148;2022-09-11T03:22:09;2.63;;;1.17;;
1282;SDS011;634;48.810;9.148;2022-09-11T03:24:40;1.83;;;1.10;;
1282;SDS011;634;48.810;9.148;2022-09-11T03:27:10;2.80;;;1.30;;
1282;SDS011;634;48.810;9.148;2022-09-11T03:29:40;2.00;;;1.53;;
1282;SDS011;634;48.810;9.148;2022-09-11T03:32:13;2.33;;;1.50;;
1282;SDS011;634;48.810;9.148;2022-09-11T03:34:42;1.67;;;1.10;;
1282;SDS011;634;48.810;9.148;2022-09-11T03:37:14;1.67;;;1.40;;
1282;SDS011;634;48.810;9.148;2022-09-11T03:39:45;3.27;;;2.40;;
1282;SDS011;634;48.810;9.148;2022-09-11T03:42:14;3.80;;;1.67;;
1282;SDS011;634;48.810;9.148;2022-09-11T03:44:44;1.10;;;1.00;;
1282;SDS011;634;48.810;9.148;2022-09-11T03:47:16;3.33;;;1.40;;
1282;SDS011;634;48.810;9.148;2022-09-11T03:49:47;2.50;;;1.40;;
1282;SDS011;634;48.810;9.148;2022-09-11T03:52:16;3.50;;;1.60;;
1282;SDS011;634;48.810;9.148;2022-09-11T03:54:48;2.10;;;1.63;;
1282;SDS011;634;48.810;9.148;2022-09-11T03:57:17;2.80;;;1.43;;
1282;SDS011;634;48.810;9.148;2022-09-11T03:59:47;1.90;;;1.63;;
1282;SDS011;634;48.810;9.148;2022-09-11T04:02:19;3.00;;;1.80;;
1282;SDS011;634;48.810;9.148;2022-09-11T04:04:49;3.33;;;2.13;;
1282;SDS011;634;48.810;9.148;2022-09-11T04:07:18;2.10;;;1.40;;
1282;SDS011;634;48.810;9.148;2022-09-11T04:09:48;2.07;;;1.80;;
1282;SDS011;634;48.810;9.148;2022-09-11T04:12:17;4.80;;;1.93;;
1282;SDS011;634;48.810;9.148;2022-09-11T04:14:47;3.03;;;1.80;;
1282;SDS011;634;48.810;9.148;2022-09-11T04:17:20;2.57;;;2.10;;
1282;SDS011;634;48.810;9.148;2022-09-11T04:19:49;2.63;;;1.50;;
1282;SDS011;634;48.810;9.148;2022-09-11T04:22:18;2.70;;;1.70;;
1282;SDS011;634;48.810;9.148;2022-09-11T04:24:49;2.30;;;2.03;;
1282;SDS011;634;48.810;9.148;2022-09-11T04:27:21;4.07;;;2.10;;
1282;SDS011;634;48.810;9.148;2022-09-11T04:29:52;2.40;;;2.03;;
1282;SDS011;634;48.810;9.148;2022-09-11T04:32:24;2.23;;;1.90;;
1282;SDS011;634;48.810;9.148;2022-09-11T04:34:55;2.50;;;1.90;;
1282;SDS011;634;48.810;9.148;2022-09-11T04:37:29;2.73;;;2.20;;
1282;SDS011;634;48.810;9.148;2022-09-11T04:40:01;3.37;;;2.10;;
1282;SDS011;634;48.810;9.148;2022-09-11T04:42:31;1.87;;;1.63;;
1282;SDS011;634;48.810;9.148;2022-09-11T04:45:03;5.80;;;2.90;;
1282;SDS011;634;48.810;9.148;2022-09-11T04:47:36;3.03;;;2.03;;
1282;SDS011;634;48.810;9.148;2022-09-11T04:50:07;2.80;;;2.60;;
1282;SDS011;634;48.810;9.148;2022-09-11T04:52:39;1.93;;;1.70;;
1282;SDS011;634;48.810;9.148;2022-09-11T04:55:08;3.33;;;2.43;;
1282;SDS011;634;48.810;9.148;2022-09-11T04:57:38;3.93;;;2.60;;
1282;SDS011;634;48.810;9.148;2022-09-11T05:00:09;3.23;;;2.80;;
1282;SDS011;634;48.810;9.148;2022-09-11T05:02:43;3.93;;;2.97;;
1282;SDS011;634;48.810;9.148;2022-09-11T05:05:13;3.47;;;3.17;;
1282;SDS011;634;48.810;9.148;2022-09-11T05:07:43;3.50;;;3.00;;
1282;SDS011;634;48.810;9.148;2022-09-11T05:10:16;4.57;;;3.03;;
1282;SDS011;634;48.810;9.148;2022-09-11T05:12:46;4.67;;;2.73;;
1282;SDS011;634;48.810;9.148;2022-09-11T05:15:19;2.90;;;2.70;;
1282;SDS011;634;48.810;9.148;2022-09-11T05:17:51;6.27;;;2.90;;
1282;SDS011;634;48.810;9.148;2022-09-11T05:20:21;3.03;;;2.43;;
1282;SDS011;634;48.810;9.148;2022-09-11T05:22:50;3.50;;;2.83;;
1282;SDS011;634;48.810;9.148;2022-09-11T05:25:20;3.30;;;3.00;;
1282;SDS011;634;48.810;9.148;2022-09-11T05:27:50;3.77;;;2.80;;
1282;SDS011;634;48.810;9.148;2022-09-11T05:30:19;3.10;;;2.77;;
1282;SDS011;634;48.810;9.148;2022-09-11T05:32:53;3.10;;;2.80;;
1282;SDS011;634;48.810;9.148;2022-09-11T05:35:23;3.33;;;2.90;;
1282;SDS011;634;48.810;9.148;2022-09-11T05:37:53;3.67;;;3.10;;
1282;SDS011;634;48.810;9.148;2022-09-11T05:40:23;3.73;;;2.90;;
1282;SDS011;634;48.810;9.148;2022-09-11T05:42:52;3.70;;;2.40;;
1282;SDS011;634;48.810;9.148;2022-09-11T05:45:23;4.40;;;3.27;;
1282;SDS011;634;48.810;9.148;2022-09-11T05:47:55;3.40;;;3.20;;
1282;SDS011;634;48.810;9.148;2022-09-11T05:50:24;4.80;;;2.90;;
1282;SDS011;634;48.810;9.148;2022-09-11T05:52:56;4.07;;;2.90;;
1282;SDS011;634;48.810;9.148;2022-09-11T05:55:26;4.60;;;3.13;;
1282;SDS011;634;48.810;9.148;2022-09-11T05:57:55;2.97;;;2.47;;
1282;SDS011;634;48.810;9.148;2022-09-11T06:00:24;2.83;;;2.33;;
1282;SDS011;634;48.810;9.148;2022-09-11T06:02:59;6.63;;;2.93;;
1282;SDS011;634;48.810;9.148;2022-09-11T06:05:29;4.37;;;2.93;;
1282;SDS011;634;48.810;9.148;2022-09-11T06:08:03;3.50;;;3.00;;
1282;SDS011;634;48.810;9.148;2022-09-11T06:10:34;9.43;;;3.20;;
1282;SDS011;634;48.810;9.148;2022-09-11T06:13:05;3.60;;;3.30;;
1282;SDS011;634;48.810;9.148;2022-09-11T06:15:35;4.67;;;3.53;;
1282;SDS011;634;48.810;9.148;2022-09-11T06:18:07;7.80;;;3.10;;
1282;SDS011;634;48.810;9.148;2022-09-11T06:20:36;5.67;;;3.97;;
1282;SDS011;634;48.810;9.148;2022-09-11T06:23:11;3.70;;;3.40;;
1282;SDS011;634;48.810;9.148;2022-09-11T06:25:41;7.43;;;4.40;;
1282;SDS011;634;48.810;9.148;2022-09-11T06:28:11;5.50;;;4.20;;
1282;SDS011;634;48.810;9.148;2022-09-11T06:30:41;4.07;;;3.43;;
1282;SDS011;634;48.810;9.148;2022-09-11T06:33:13;5.60;;;3.13;;
1282;SDS011;634;48.810;9.148;2022-09-11T06:35:54;4.13;;;3.33;;
1282;SDS011;634;48.810;9.148;2022-09-11T06:38:25;4.53;;;3.67;;
1282;SDS011;634;48.810;9.148;2022-09-11T06:40:56;4.97;;;4.43;;
1282;SDS011;634;48.810;9.148;2022-09-11T06:43:33;4.20;;;3.80;;
1282;SDS011;634;48.810;9.148;2022-09-11T06:46:02;4.40;;;4.00;;
1282;SDS011;634;48.810;9.148;2022-09-11T06:48:35;5.00;;;4.40;;
1282;SDS011;634;48.810;9.148;2022-09-11T06:51:06;5.10;;;4.60;;
1282;SDS011;634;48.810;9.148;2022-09-11T06:53:42;6.13;;;3.70;;
1282;SDS011;634;48.810;9.148;2022-09-11T06:56:13;4.10;;;3.50;;
1282;SDS011;634;48.810;9.148;2022-09-11T06:58:45;5.20;;;4.43;;
1282;SDS011;634;48.810;9.148;2022-09-11T07:01:16;6.10;;;4.93;;
1282;SDS011;634;48.810;9.148;2022-09-11T07:03:55;5.03;;;3.70;;
1282;SDS011;634;48.810;9.148;2022-09-11T07:06:27;8.40;;;5.00;;
1282;SDS011;634;48.810;9.148;2022-09-11T07:09:01;5.30;;;4.80;;
1282;SDS011;634;48.810;9.148;2022-09-11T07:11:39;7.43;;;5.70;;
1282;SDS011;634;48.810;9.148;2022-09-11T07:14:11;7.43;;;4.80;;
1282;SDS011;634;48.810;9.148;2022-09-11T07:16:48;5.53;;;4.70;;
1282;SDS011;634;48.810;9.148;2022-09-11T07:19:26;6.10;;;5.50;;
1282;SDS011;634;48.810;9.148;2022-09-11T07:21:57;6.13;;;5.30;;
1282;SDS011;634;48.810;9.148;2022-09-11T07:24:27;5.20;;;4.70;;
1282;SDS011;634;48.810;9.148;2022-09-11T07:26:58;6.30;;;5.77;;
1282;SDS011;634;48.810;9.148;2022-09-11T07:29:31;5.20;;;4.20;;
1282;SDS011;634;48.810;9.148;2022-09-11T07:32:01;6.50;;;5.90;;
1282;SDS011;634;48.810;9.148;2022-09-11T07:34:36;9.30;;;4.93;;
1282;SDS011;634;48.810;9.148;2022-09-11T07:37:08;4.37;;;3.57;;
1282;SDS011;634;48.810;9.148;2022-09-11T07:39:39;3.73;;;3.43;;
1282;SDS011;634;48.810;9.148;2022-09-11T07:42:15;5.10;;;4.60;;
1282;SDS011;634;48.810;9.148;2022-09-11T07:44:45;6.47;;;5.70;;
1282;SDS011;634;48.810;9.148;2022-09-11T07:47:18;7.17;;;6.47;;
1282;SDS011;634;48.810;9.148;2022-09-11T07:49:53;7.37;;;6.50;;
1282;SDS011;634;48.810;9.148;2022-09-11T07:52:25;6.77;;;5.47;;
1282;SDS011;634;48.810;9.148;2022-09-11T07:54:58;6.77;;;6.00;;
1282;SDS011;634;48.810;9.148;2022-09-11T07:57:32;6.90;;;6.00;;
1282;SDS011;634;48.810;9.148;2022-09-11T08:00:06;6.80;;;5.07;;
1282;SDS011;634;48.810;9.148;2022-09-11T08:02:46;7.00;;;5.73;;
1282;SDS011;634;48.810;9.148;2022-09-11T08:05:29;6.00;;;5.40;;
1282;SDS011;634;48.810;9.148;2022-09-11T08:07:59;13.43;;;5.93;;
1282;SDS011;634;48.810;9.148;2022-09-11T08:10:29;9.83;;;6.60;;
1282;SDS011;634;48.810;9.148;2022-09-11T08:13:00;6.70;;;6.10;;
1282;SDS011;634;48.810;9.148;2022-09-11T08:15:32;6.70;;;5.47;;
1282;SDS011;634;48.810;9.148;2022-09-11T08:18:05;6.60;;;5.60;;
1282;SDS011;634;48.810;9.148;2022-09-11T08:20:37;7.07;;;6.33;;
1282;SDS011;634;48.810;9.148;2022-09-11T08:23:07;9.60;;;5.77;;
1282;SDS011;634;48.810;9.148;2022-09-11T08:25:37;6.20;;;5.60;;
1282;SDS011;634;48.810;9.148;2022-09-11T08:28:08;5.63;;;5.13;;
1282;SDS011;634;48.810;9.148;2022-09-11T08:30:37;7.53;;;5.63;;
1282;SDS011;634;48.810;9.148;2022-09-11T08:33:08;6.60;;;4.60;;
1282;SDS011;634;48.810;9.148;2022-09-11T08:35:45;8.77;;;5.37;;
1282;SDS011;634;48.810;9.148;2022-09-11T08:38:15;6.93;;;5.30;;
1282;SDS011;634;48.810;9.148;2022-09-11T08:40:45;7.30;;;5.77;;
1282;SDS011;634;48.810;9.148;2022-09-11T08:43:17;5.63;;;5.13;;
1282;SDS011;634;48.810;9.148;2022-09-11T08:45:52;6.50;;;5.00;;
1282;SDS011;634;48.810;9.148;2022-09-11T08:48:28;6.20;;;5.40;;
1282;SDS011;634;48.810;9.148;2022-09-11T08:51:07;10.30;;;6.07;;
1282;SDS011;634;48.810;9.148;2022-09-11T08:53:40;7.10;;;6.17;;
1282;SDS011;634;48.810;9.148;2022-09-11T08:56:14;6.37;;;5.80;;
1282;SDS011;634;48.810;9.148;2022-09-11T08:58:51;6.57;;;5.87;;
1282;SDS011;634;48.810;9.148;2022-09-11T09:01:37;5.50;;;5.00;;
1282;SDS011;634;48.810;9.148;2022-09-11T09:04:25;6.10;;;5.50;;
1282;SDS011;634;48.810;9.148;2022-09-11T09:07:10;7.67;;;5.63;;
1282;SDS011;634;48.810;9.148;2022-09-11T09:09:50;6.10;;;5.17;;
1282;SDS011;634;48.810;9.148;2022-09-11T09:12:26;8.30;;;5.00;;
1282;SDS011;634;48.810;9.148;2022-09-11T09:15:06;6.93;;;4.30;;
1282;SDS011;634;48.810;9.148;2022-09-11T09:17:49;6.43;;;4.40;;
1282;SDS011;634;48.810;9.148;2022-09-11T09:20:25;6.23;;;4.10;;
1282;SDS011;634;48.810;9.148;2022-09-11T09:23:01;15.20;;;4.43;;
1282;SDS011;634;48.810;9.148;2022-09-11T09:25:38;5.20;;;4.30;;
1282;SDS011;634;48.810;9.148;2022-09-11T09:28:14;5.70;;;4.23;;
1282;SDS011;634;48.810;9.148;2022-09-11T09:30:50;6.33;;;4.23;;
1282;SDS011;634;48.810;9.148;2022-09-11T09:33:28;5.73;;;4.50;;
1282;SDS011;634;48.810;9.148;2022-09-11T09:36:09;5.40;;;3.57;;
1282;SDS011;634;48.810;9.148;2022-09-11T09:38:46;3.73;;;3.40;;
1282;SDS011;634;48.810;9.148;2022-09-11T09:41:28;5.07;;;3.80;;
1282;SDS011;634;48.810;9.148;2022-09-11T09:44:24;4.30;;;3.90;;
1282;SDS011;634;48.810;9.148;2022-09-11T09:47:03;4.43;;;3.73;;
1282;SDS011;634;48.810;9.148;2022-09-11T09:49:37;5.30;;;4.00;;
1282;SDS011;634;48.810;9.148;2022-09-11T09:52:15;5.00;;;4.00;;
1282;SDS011;634;48.810;9.148;2022-09-11T09:54:51;4.43;;;3.50;;
1282;SDS011;634;48.810;9.148;2022-09-11T09:57:26;4.73;;;4.33;;
1282;SDS011;634;48.810;9.148;2022-09-11T10:00:00;6.73;;;4.80;;
1282;SDS011;634;48.810;9.148;2022-09-11T10:02:40;5.23;;;4.70;;
1282;SDS011;634;48.810;9.148;2022-09-11T10:05:22;5.23;;;4.57;;
1282;SDS011;634;48.810;9.148;2022-09-11T10:07:56;4.70;;;4.30;;
1282;SDS011;634;48.810;9.148;2022-09-11T10:10:31;7.10;;;4.63;;
1282;SDS011;634;48.810;9.148;2022-09-11T10:13:05;4.10;;;3.70;;
1282;SDS011;634;48.810;9.148;2022-09-11T10:15:51;4.13;;;3.83;;
1282;SDS011;634;48.810;9.148;2022-09-11T10:18:22;7.73;;;4.30;;
1282;SDS011;634;48.810;9.148;2022-09-11T10:21:12;5.43;;;4.40;;
1282;SDS011;634;48.810;9.148;2022-09-11T10:23:50;5.50;;;4.40;;
1282;SDS011;634;48.810;9.148;2022-09-11T10:26:25;4.70;;;3.70;;
1282;SDS011;634;48.810;9.148;2022-09-11T10:28:58;5.90;;;4.50;;
1282;SDS011;634;48.810;9.148;2022-09-11T10:31:33;5.90;;;4.77;;
1282;SDS011;634;48.810;9.148;2022-09-11T10:34:03;4.80;;;4.40;;
1282;SDS011;634;48.810;9.148;2022-09-11T10:36:33;6.63;;;5.10;;
1282;SDS011;634;48.810;9.148;2022-09-11T10:39:02;5.60;;;4.57;;
1282;SDS011;634;48.810;9.148;2022-09-11T10:41:34;5.87;;;4.27;;
1282;SDS011;634;48.810;9.148;2022-09-11T10:44:04;6.00;;;4.70;;
1282;SDS011;634;48.810;9.148;2022-09-11T10:46:39;4.57;;;4.17;;
1282;SDS011;634;48.810;9.148;2022-09-11T10:49:15;4.10;;;3.80;;
1282;SDS011;634;48.810;9.148;2022-09-11T10:51:58;6.33;;;4.80;;
1282;SDS011;634;48.810;9.148;2022-09-11T10:54:33;4.90;;;4.50;;
1282;SDS011;634;48.810;9.148;2022-09-11T10:57:16;4.63;;;4.23;;
1282;SDS011;634;48.810;9.148;2022-09-11T10:59:54;5.30;;;4.30;;
1282;SDS011;634;48.810;9.148;2022-09-11T11:02:30;4.50;;;4.10;;
1282;SDS011;634;48.810;9.148;2022-09-11T11:05:02;9.70;;;5.13;;
1282;SDS011;634;48.810;9.148;2022-09-11T11:07:43;7.13;;;4.27;;
1282;SDS011;634;48.810;9.148;2022-09-11T11:10:44;5.07;;;4.50;;
1282;SDS011;634;48.810;9.148;2022-09-11T11:13:35;4.97;;;3.97;;
1282;SDS011;634;48.810;9.148;2022-09-11T11:16:15;3.83;;;3.43;;
1282;SDS011;634;48.810;9.148;2022-09-11T11:18:56;5.50;;;3.73;;
1282;SDS011;634;48.810;9.148;2022-09-11T11:21:42;4.30;;;3.90;;
1282;SDS011;634;48.810;9.148;2022-09-11T11:24:28;4.00;;;3.70;;
1282;SDS011;634;48.810;9.148;2022-09-11T11:27:18;3.80;;;3.50;;
1282;SDS011;634;48.810;9.148;2022-09-11T11:33:02;5.17;;;4.67;;
1282;SDS011;634;48.810;9.148;2022-09-11T11:35:44;6.70;;;5.37;;
1282;SDS011;634;48.810;9.148;2022-09-11T11:38:23;4.40;;;4.00;;
1282;SDS011;634;48.810;9.148;2022-09-11T11:40:58;5.20;;;4.60;;
1282;SDS011;634;48.810;9.148;2022-09-11T11:43:33;6.33;;;4.80;;
1282;SDS011;634;48.810;9.148;2022-09-11T11:46:10;5.03;;;4.57;;
1282;SDS011;634;48.810;9.148;2022-09-11T11:48:45;5.07;;;4.57;;
1282;SDS011;634;48.810;9.148;2022-09-11T11:51:22;6.23;;;3.83;;
1282;SDS011;634;48.810;9.148;2022-09-11T11:53:57;6.00;;;4.07;;
1282;SDS011;634;48.810;9.148;2022-09-11T11:56:33;5.60;;;3.87;;
1282;SDS011;634;48.810;9.148;2022-09-11T11:59:10;4.00;;;3.53;;
1282;SDS011;634;48.810;9.148;2022-09-11T12:01:45;3.77;;;3.47;;
1282;SDS011;634;48.810;9.148;2022-09-11T12:04:27;3.60;;;3.30;;
1282;SDS011;634;48.810;9.148;2022-09-11T12:07:11;3.30;;;3.00;;
1282;SDS011;634;48.810;9.148;2022-09-11T12:09:45;3.17;;;2.87;;
1282;SDS011;634;48.810;9.148;2022-09-11T12:12:16;3.50;;;2.77;;
1282;SDS011;634;48.810;9.148;2022-09-11T12:14:47;8.63;;;3.03;;
1282;SDS011;634;48.810;9.148;2022-09-11T12:17:22;3.13;;;2.87;;
1282;SDS011;634;48.810;9.148;2022-09-11T12:22:58;3.97;;;3.43;;
1282;SDS011;634;48.810;9.148;2022-09-11T12:28:33;3.50;;;3.20;;
1282;SDS011;634;48.810;9.148;2022-09-11T12:31:03;4.10;;;3.70;;
1282;SDS011;634;48.810;9.148;2022-09-11T12:36:25;4.20;;;3.30;;
1282;SDS011;634;48.810;9.148;2022-09-11T12:39:22;3.50;;;3.20;;
1282;SDS011;634;48.810;9.148;2022-09-11T12:48:05;6.17;;;4.30;;
1282;SDS011;634;48.810;9.148;2022-09-11T12:50:39;4.73;;;4.33;;
1282;SDS011;634;48.810;9.148;2022-09-11T12:53:17;3.90;;;3.40;;
1282;SDS011;634;48.810;9.148;2022-09-11T12:55:58;5.47;;;4.90;;
1282;SDS011;634;48.810;9.148;2022-09-11T12:58:33;5.07;;;4.13;;
1282;SDS011;634;48.810;9.148;2022-09-11T13:01:06;4.37;;;3.70;;
1282;SDS011;634;48.810;9.148;2022-09-11T13:03:48;5.83;;;3.73;;
1282;SDS011;634;48.810;9.148;2022-09-11T13:06:34;8.80;;;4.77;;
1282;SDS011;634;48.810;9.148;2022-09-11T13:09:14;5.13;;;4.00;;
1282;SDS011;634;48.810;9.148;2022-09-11T13:11:48;4.27;;;3.87;;
1282;SDS011;634;48.810;9.148;2022-09-11T13:17:24;5.00;;;4.50;;
1282;SDS011;634;48.810;9.148;2022-09-11T13:20:18;4.67;;;4.27;;
1282;SDS011;634;48.810;9.148;2022-09-11T13:22:52;4.53;;;4.00;;
1282;SDS011;634;48.810;9.148;2022-09-11T13:25:38;4.70;;;4.27;;
1282;SDS011;634;48.810;9.148;2022-09-11T13:28:10;5.23;;;4.47;;
1282;SDS011;634;48.810;9.148;2022-09-11T13:30:47;3.87;;;3.40;;
1282;SDS011;634;48.810;9.148;2022-09-11T13:33:22;5.73;;;4.50;;
1282;SDS011;634;48.810;9.148;2022-09-11T13:35:56;5.60;;;3.93;;
1282;SDS011;634;48.810;9.148;2022-09-11T13:38:31;6.50;;;4.30;;
1282;SDS011;634;48.810;9.148;2022-09-11T13:41:03;4.90;;;4.30;;
1282;SDS011;634;48.810;9.148;2022-09-11T13:43:36;5.70;;;4.23;;
1282;SDS011;634;48.810;9.148;2022-09-11T13:46:20;4.70;;;4.00;;
1282;SDS011;634;48.810;9.148;2022-09-11T13:48:57;4.63;;;4.20;;
1282;SDS011;634;48.810;9.148;2022-09-11T13:51:42;5.73;;;4.10;;
1282;SDS011;634;48.810;9.148;2022-09-11T13:54:16;5.57;;;4.20;;
1282;SDS011;634;48.810;9.148;2022-09-11T13:57:09;5.27;;;4.77;;
1282;SDS011;634;48.810;9.148;2022-09-11T13:59:45;5.10;;;4.60;;
1282;SDS011;634;48.810;9.148;2022-09-11T14:02:24;5.70;;;4.23;;
1282;SDS011;634;48.810;9.148;2022-09-11T14:05:06;4.03;;;3.73;;
1282;SDS011;634;48.810;9.148;2022-09-11T14:07:43;21.43;;;19.63;;
1282;SDS011;634;48.810;9.148;2022-09-11T14:10:31;6.43;;;5.00;;
1282;SDS011;634;48.810;9.148;2022-09-11T14:13:08;5.60;;;5.10;;
1282;SDS011;634;48.810;9.148;2022-09-11T14:15:47;5.10;;;4.60;;
1282;SDS011;634;48.810;9.148;2022-09-11T14:18:26;4.00;;;3.70;;
1282;SDS011;634;48.810;9.148;2022-09-11T14:20:59;4.60;;;4.00;;
1282;SDS011;634;48.810;9.148;2022-09-11T14:23:33;6.33;;;3.50;;
1282;SDS011;634;48.810;9.148;2022-09-11T14:26:16;4.63;;;4.20;;
1282;SDS011;634;48.810;9.148;2022-09-11T14:28:59;4.00;;;3.60;;
1282;SDS011;634;48.810;9.148;2022-09-11T14:31:32;4.53;;;4.13;;
1282;SDS011;634;48.810;9.148;2022-09-11T14:34:13;4.10;;;3.70;;
1282;SDS011;634;48.810;9.148;2022-09-11T14:36:46;3.67;;;3.30;;
1282;SDS011;634;48.810;9.148;2022-09-11T14:42:14;4.13;;;3.73;;
1282;SDS011;634;48.810;9.148;2022-09-11T14:44:46;4.43;;;3.70;;
1282;SDS011;634;48.810;9.148;2022-09-11T14:47:16;4.20;;;3.90;;
1282;SDS011;634;48.810;9.148;2022-09-11T14:49:48;5.20;;;4.73;;
1282;SDS011;634;48.810;9.148;2022-09-11T14:52:20;4.13;;;3.73;;
1282;SDS011;634;48.810;9.148;2022-09-11T14:54:51;4.10;;;3.70;;
1282;SDS011;634;48.810;9.148;2022-09-11T14:57:26;4.20;;;3.80;;
1282;SDS011;634;48.810;9.148;2022-09-11T15:00:00;4.90;;;3.57;;
1282;SDS011;634;48.810;9.148;2022-09-11T15:02:31;6.93;;;5.60;;
1282;SDS011;634;48.810;9.148;2022-09-11T15:05:00;3.80;;;3.50;;
1282;SDS011;634;48.810;9.148;2022-09-11T15:07:30;3.87;;;3.47;;
1282;SDS011;634;48.810;9.148;2022-09-11T15:10:01;4.67;;;3.83;;
1282;SDS011;634;48.810;9.148;2022-09-11T15:12:33;4.90;;;4.47;;
1282;SDS011;634;48.810;9.148;2022-09-11T15:15:02;4.33;;;3.93;;
1282;SDS011;634;48.810;9.148;2022-09-11T15:17:33;4.53;;;4.07;;
1282;SDS011;634;48.810;9.148;2022-09-11T15:20:02;4.40;;;4.00;;
1282;SDS011;634;48.810;9.148;2022-09-11T15:22:33;4.53;;;4.13;;
1282;SDS011;634;48.810;9.148;2022-09-11T15:25:06;5.37;;;3.90;;
1282;SDS011;634;48.810;9.148;2022-09-11T15:27:41;4.20;;;3.80;;
1282;SDS011;634;48.810;9.148;2022-09-11T15:30:10;4.90;;;4.30;;
1282;SDS011;634;48.810;9.148;2022-09-11T15:32:40;4.67;;;4.27;;
1282;SDS011;634;48.810;9.148;2022-09-11T15:35:09;5.20;;;4.30;;
1282;SDS011;634;48.810;9.148;2022-09-11T15:37:39;5.03;;;4.53;;
1282;SDS011;634;48.810;9.148;2022-09-11T15:40:12;6.60;;;4.80;;
1282;SDS011;634;48.810;9.148;2022-09-11T15:42:45;5.80;;;5.20;;
1282;SDS011;634;48.810;9.148;2022-09-11T15:45:16;4.77;;;4.37;;
1282;SDS011;634;48.810;9.148;2022-09-11T15:47:46;5.37;;;4.00;;
1282;SDS011;634;48.810;9.148;2022-09-11T15:50:15;3.97;;;3.67;;
1282;SDS011;634;48.810;9.148;2022-09-11T15:52:49;4.60;;;4.20;;
1282;SDS011;634;48.810;9.148;2022-09-11T15:55:18;4.67;;;4.27;;
1282;SDS011;634;48.810;9.148;2022-09-11T15:57:51;4.60;;;4.20;;
1282;SDS011;634;48.810;9.148;2022-09-11T16:00:21;5.13;;;4.63;;
1282;SDS011;634;48.810;9.148;2022-09-11T16:02:50;5.00;;;4.10;;
1282;SDS011;634;48.810;9.148;2022-09-11T16:05:21;4.10;;;3.80;;
1282;SDS011;634;48.810;9.148;2022-09-11T16:07:50;4.17;;;3.87;;
1282;SDS011;634;48.810;9.148;2022-09-11T16:10:20;4.70;;;4.30;;
1282;SDS011;634;48.810;9.148;2022-09-11T16:12:52;4.70;;;3.87;;
1282;SDS011;634;48.810;9.148;2022-09-11T16:15:22;3.63;;;3.33;;
1282;SDS011;634;48.810;9.148;2022-09-11T16:17:53;6.60;;;4.03;;
1282;SDS011;634;48.810;9.148;2022-09-11T16:20:23;4.20;;;3.60;;
1282;SDS011;634;48.810;9.148;2022-09-11T16:22:54;5.00;;;4.50;;
1282;SDS011;634;48.810;9.148;2022-09-11T16:25:24;5.30;;;4.80;;
1282;SDS011;634;48.810;9.148;2022-09-11T16:27:57;4.73;;;4.23;;
1282;SDS011;634;48.810;9.148;2022-09-11T16:30:27;4.87;;;4.10;;
1282;SDS011;634;48.810;9.148;2022-09-11T16:32:57;4.30;;;3.90;;
1282;SDS011;634;48.810;9.148;2022-09-11T16:35:29;6.03;;;4.33;;
1282;SDS011;634;48.810;9.148;2022-09-11T16:37:59;5.03;;;4.20;;
1282;SDS011;634;48.810;9.148;2022-09-11T16:40:31;4.93;;;4.43;;
1282;SDS011;634;48.810;9.148;2022-09-11T16:43:03;5.43;;;3.47;;